sensor_id;sensor_type;location;lat;lon;timestamp;pressure;altitude;pressure_sealevel;temperature;humidity
11808;BME280;5961;42.640;23.380;2022-08-21T00:00:06;93572.69;;;22.56;93.98
11808;BME280;5961;42.640;23.380;2022-08-21T00:02:33;93574.06;;;22.64;94.05
11808;BME280;5961;42.640;23.380;2022-08-21T00:05:00;93567.91;;;22.63;93.66
11808;BME280;5961;42.640;23.380;2022-08-21T00:07:27;93555.50;;;22.66;93.16
11808;BME280;5961;42.640;23.380;2022-08-21T00:09:54;93561.28;;;22.64;92.25
11808;BME280;5961;42.640;23.380;2022-08-21T00:12:23;93551.28;;;22.61;91.21
11808;BME280;5961;42.640;23.380;2022-08-21T00:14:49;93549.31;;;22.65;90.13
11808;BME280;5961;42.640;23.380;2022-08-21T00:17:16;93547.38;;;22.66;91.17
11808;BME280;5961;42.640;23.380;2022-08-21T00:19:43;93555.09;;;22.64;91.59
11808;BME280;5961;42.640;23.380;2022-08-21T00:22:10;93557.56;;;22.58;90.83
11808;BME280;5961;42.640;23.380;2022-08-21T00:24:36;93547.97;;;22.54;90.51
11808;BME280;5961;42.640;23.380;2022-08-21T00:27:03;93535.41;;;22.43;90.42
11808;BME280;5961;42.640;23.380;2022-08-21T00:29:31;93557.22;;;22.56;90.12
11808;BME280;5961;42.640;23.380;2022-08-21T00:31:58;93549.50;;;22.55;90.22
11808;BME280;5961;42.640;23.380;2022-08-21T00:34:25;93547.63;;;22.52;90.65
11808;BME280;5961;42.640;23.380;2022-08-21T00:36:52;93542.63;;;22.50;90.11
11808;BME280;5961;42.640;23.380;2022-08-21T00:39:19;93540.34;;;22.49;89.34
11808;BME280;5961;42.640;23.380;2022-08-21T00:41:45;93546.53;;;22.49;88.70
11808;BME280;5961;42.640;23.380;2022-08-21T00:44:13;93540.31;;;22.32;89.01
11808;BME280;5961;42.640;23.380;2022-08-21T00:46:42;93535.09;;;22.22;89.33
11808;BME280;5961;42.640;23.380;2022-08-21T00:49:10;93556.19;;;22.30;89.42
11808;BME280;5961;42.640;23.380;2022-08-21T00:51:40;93558.16;;;22.30;89.63
11808;BME280;5961;42.640;23.380;2022-08-21T00:54:09;93558.22;;;22.26;90.32
11808;BME280;5961;42.640;23.380;2022-08-21T00:56:37;93547.44;;;22.23;90.62
11808;BME280;5961;42.640;23.380;2022-08-21T00:59:05;93531.78;;;22.14;90.15
11808;BME280;5961;42.640;23.380;2022-08-21T01:01:32;93537.03;;;22.21;89.86
11808;BME280;5961;42.640;23.380;2022-08-21T01:04:00;93543.28;;;22.18;90.75
11808;BME280;5961;42.640;23.380;2022-08-21T01:06:27;93503.59;;;21.92;91.25
11808;BME280;5961;42.640;23.380;2022-08-21T01:08:53;93532.19;;;22.13;91.76
11808;BME280;5961;42.640;23.380;2022-08-21T01:11:20;93527.59;;;22.10;92.11
11808;BME280;5961;42.640;23.380;2022-08-21T01:13:47;93530.56;;;22.15;92.49
11808;BME280;5961;42.640;23.380;2022-08-21T01:16:17;93529.47;;;22.13;92.65
11808;BME280;5961;42.640;23.380;2022-08-21T01:18:45;93531.06;;;22.10;92.09
11808;BME280;5961;42.640;23.380;2022-08-21T01:21:16;93523.59;;;21.98;93.46
11808;BME280;5961;42.640;23.380;2022-08-21T01:23:45;93526.63;;;22.00;93.41
11808;BME280;5961;42.640;23.380;2022-08-21T01:26:14;93518.94;;;21.99;93.49
11808;BME280;5961;42.640;23.380;2022-08-21T01:28:45;93517.13;;;21.92;93.28
11808;BME280;5961;42.640;23.380;2022-08-21T01:31:15;93521.00;;;21.91;93.44
11808;BME280;5961;42.640;23.380;2022-08-21T01:33:44;93511.41;;;21.86;93.93
11808;BME280;5961;42.640;23.380;2022-08-21T01:36:11;93527.75;;;21.79;95.00
11808;BME280;5961;42.640;23.380;2022-08-21T01:38:39;93525.81;;;21.80;95.58
11808;BME280;5961;42.640;23.380;2022-08-21T01:41:06;93522.50;;;21.72;95.71
11808;BME280;5961;42.640;23.380;2022-08-21T01:43:32;93465.13;;;21.18;97.04
11808;BME280;5961;42.640;23.380;2022-08-21T01:46:00;93510.59;;;21.47;97.21
11808;BME280;5961;42.640;23.380;2022-08-21T01:48:26;93518.22;;;21.52;97.07
11808;BME280;5961;42.640;23.380;2022-08-21T01:50:53;93527.03;;;21.56;96.77
11808;BME280;5961;42.640;23.380;2022-08-21T01:53:20;93521.69;;;21.52;96.86
11808;BME280;5961;42.640;23.380;2022-08-21T01:55:48;93514.47;;;21.46;97.47
11808;BME280;5961;42.640;23.380;2022-08-21T01:58:15;93519.88;;;21.46;99.18
11808;BME280;5961;42.640;23.380;2022-08-21T02:00:41;93530.00;;;21.42;100.00
11808;BME280;5961;42.640;23.380;2022-08-21T02:03:08;93525.81;;;21.37;100.00
11808;BME280;5961;42.640;23.380;2022-08-21T02:05:35;93523.25;;;21.30;100.00
11808;BME280;5961;42.640;23.380;2022-08-21T02:08:02;93527.28;;;21.18;100.00
11808;BME280;5961;42.640;23.380;2022-08-21T02:10:31;93523.06;;;21.17;100.00
11808;BME280;5961;42.640;23.380;2022-08-21T02:13:00;93527.28;;;21.18;100.00
11808;BME280;5961;42.640;23.380;2022-08-21T02:15:27;93541.63;;;21.15;100.00
11808;BME280;5961;42.640;23.380;2022-08-21T02:17:57;93547.41;;;21.17;100.00
11808;BME280;5961;42.640;23.380;2022-08-21T02:20:28;93531.94;;;21.18;100.00
11808;BME280;5961;42.640;23.380;2022-08-21T02:22:55;93534.94;;;21.23;100.00
11808;BME280;5961;42.640;23.380;2022-08-21T02:25:24;93500.53;;;21.01;100.00
11808;BME280;5961;42.640;23.380;2022-08-21T02:27:52;93541.84;;;21.24;100.00
11808;BME280;5961;42.640;23.380;2022-08-21T02:30:23;93545.25;;;21.05;100.00
11808;BME280;5961;42.640;23.380;2022-08-21T02:32:50;93545.75;;;20.97;100.00
11808;BME280;5961;42.640;23.380;2022-08-21T02:35:17;93552.28;;;20.99;100.00
11808;BME280;5961;42.640;23.380;2022-08-21T02:37:47;93538.28;;;20.81;100.00
11808;BME280;5961;42.640;23.380;2022-08-21T02:40:17;93551.22;;;20.93;100.00
11808;BME280;5961;42.640;23.380;2022-08-21T02:42:44;93546.97;;;20.92;100.00
11808;BME280;5961;42.640;23.380;2022-08-21T02:45:11;93543.28;;;20.79;100.00
11808;BME280;5961;42.640;23.380;2022-08-21T02:47:40;93544.19;;;20.72;100.00
11808;BME280;5961;42.640;23.380;2022-08-21T02:50:12;93545.69;;;20.73;100.00
11808;BME280;5961;42.640;23.380;2022-08-21T02:52:39;93543.41;;;20.72;100.00
11808;BME280;5961;42.640;23.380;2022-08-21T02:55:06;93542.38;;;20.62;100.00
11808;BME280;5961;42.640;23.380;2022-08-21T02:57:33;93544.38;;;20.58;100.00
11808;BME280;5961;42.640;23.380;2022-08-21T02:59:59;93549.72;;;20.62;100.00
11808;BME280;5961;42.640;23.380;2022-08-21T03:02:26;93540.41;;;20.40;100.00
11808;BME280;5961;42.640;23.380;2022-08-21T03:04:54;93539.91;;;20.48;100.00
11808;BME280;5961;42.640;23.380;2022-08-21T03:07:21;93545.34;;;20.45;100.00
11808;BME280;5961;42.640;23.380;2022-08-21T03:09:48;93549.56;;;20.46;100.00
11808;BME280;5961;42.640;23.380;2022-08-21T03:12:14;93548.72;;;20.18;100.00
11808;BME280;5961;42.640;23.380;2022-08-21T03:14:41;93546.41;;;20.17;100.00
11808;BME280;5961;42.640;23.380;2022-08-21T03:17:08;93540.94;;;20.28;100.00
11808;BME280;5961;42.640;23.380;2022-08-21T03:19:34;93533.91;;;20.34;100.00
11808;BME280;5961;42.640;23.380;2022-08-21T03:22:03;93536.16;;;20.39;100.00
11808;BME280;5961;42.640;23.380;2022-08-21T03:24:30;93544.91;;;20.46;100.00
11808;BME280;5961;42.640;23.380;2022-08-21T03:26:57;93542.56;;;20.52;100.00
11808;BME280;5961;42.640;23.380;2022-08-21T03:29:23;93545.19;;;20.55;100.00
11808;BME280;5961;42.640;23.380;2022-08-21T03:31:50;93537.50;;;20.54;100.00
11808;BME280;5961;42.640;23.380;2022-08-21T03:34:19;93544.78;;;20.57;100.00
11808;BME280;5961;42.640;23.380;2022-08-21T03:36:46;93546.31;;;20.58;100.00
11808;BME280;5961;42.640;23.380;2022-08-21T03:39:15;93505.41;;;20.33;100.00
11808;BME280;5961;42.640;23.380;2022-08-21T03:41:43;93550.78;;;20.68;100.00
11808;BME280;5961;42.640;23.380;2022-08-21T03:44:09;93547.28;;;20.71;100.00
11808;BME280;5961;42.640;23.380;2022-08-21T03:46:37;93522.38;;;20.60;100.00
11808;BME280;5961;42.640;23.380;2022-08-21T03:49:04;93547.16;;;20.82;100.00
11808;BME280;5961;42.640;23.380;2022-08-21T03:51:30;93540.53;;;20.83;100.00
11808;BME280;5961;42.640;23.380;2022-08-21T03:53:58;93546.25;;;20.88;100.00
11808;BME280;5961;42.640;23.380;2022-08-21T03:56:27;93548.50;;;20.93;100.00
11808;BME280;5961;42.640;23.380;2022-08-21T03:58:53;93552.03;;;20.90;100.00
11808;BME280;5961;42.640;23.380;2022-08-21T04:01:21;93556.25;;;20.91;100.00
11808;BME280;5961;42.640;23.380;2022-08-21T04:03:47;93561.25;;;20.93;100.00
11808;BME280;5961;42.640;23.380;2022-08-21T04:06:14;93565.88;;;20.92;100.00
11808;BME280;5961;42.640;23.380;2022-08-21T04:08:41;93566.03;;;20.82;100.00
11808;BME280;5961;42.640;23.380;2022-08-21T04:11:08;93558.09;;;20.71;100.00
11808;BME280;5961;42.640;23.380;2022-08-21T04:13:38;93558.19;;;20.64;100.00
11808;BME280;5961;42.640;23.380;2022-08-21T04:16:06;93553.66;;;20.57;100.00
11808;BME280;5961;42.640;23.380;2022-08-21T04:18:33;93550.19;;;20.57;100.00
11808;BME280;5961;42.640;23.380;2022-08-21T04:21:01;93546.75;;;20.53;100.00
11808;BME280;5961;42.640;23.380;2022-08-21T04:23:29;93554.47;;;20.54;100.00
11808;BME280;5961;42.640;23.380;2022-08-21T04:25:56;93556.41;;;20.54;100.00
11808;BME280;5961;42.640;23.380;2022-08-21T04:28:25;93555.59;;;20.57;100.00
11808;BME280;5961;42.640;23.380;2022-08-21T04:30:54;93557.88;;;20.58;100.00
11808;BME280;5961;42.640;23.380;2022-08-21T04:33:21;93561.72;;;20.61;100.00
11808;BME280;5961;42.640;23.380;2022-08-21T04:35:49;93555.06;;;20.65;100.00
11808;BME280;5961;42.640;23.380;2022-08-21T04:38:16;93529.88;;;20.49;100.00
11808;BME280;5961;42.640;23.380;2022-08-21T04:40:43;93549.22;;;20.70;100.00
11808;BME280;5961;42.640;23.380;2022-08-21T04:43:10;93553.44;;;20.71;100.00
11808;BME280;5961;42.640;23.380;2022-08-21T04:45:39;93554.09;;;20.79;100.00
11808;BME280;5961;42.640;23.380;2022-08-21T04:48:09;93542.56;;;20.78;100.00
11808;BME280;5961;42.640;23.380;2022-08-21T04:50:41;93546.72;;;20.83;100.00
11808;BME280;5961;42.640;23.380;2022-08-21T04:53:13;93558.59;;;20.89;100.00
11808;BME280;5961;42.640;23.380;2022-08-21T04:55:41;93559.66;;;20.95;100.00
11808;BME280;5961;42.640;23.380;2022-08-21T04:58:09;93550.78;;;20.95;100.00
11808;BME280;5961;42.640;23.380;2022-08-21T05:00:37;93539.59;;;20.96;100.00
11808;BME280;5961;42.640;23.380;2022-08-21T05:03:04;93545.28;;;21.02;100.00
11808;BME280;5961;42.640;23.380;2022-08-21T05:05:35;93549.16;;;21.01;99.81
11808;BME280;5961;42.640;23.380;2022-08-21T05:08:03;93546.34;;;21.08;99.46
11808;BME280;5961;42.640;23.380;2022-08-21T05:10:31;93549.09;;;21.04;99.31
11808;BME280;5961;42.640;23.380;2022-08-21T05:12:58;93551.56;;;20.95;99.60
11808;BME280;5961;42.640;23.380;2022-08-21T05:15:26;93547.50;;;20.84;100.00
11808;BME280;5961;42.640;23.380;2022-08-21T05:17:53;93553.19;;;20.89;100.00
11808;BME280;5961;42.640;23.380;2022-08-21T05:20:19;93546.19;;;20.92;100.00
11808;BME280;5961;42.640;23.380;2022-08-21T05:22:47;93545.69;;;21.00;100.00
11808;BME280;5961;42.640;23.380;2022-08-21T05:25:14;93546.75;;;21.06;100.00
11808;BME280;5961;42.640;23.380;2022-08-21T05:27:41;93562.13;;;21.13;100.00
11808;BME280;5961;42.640;23.380;2022-08-21T05:30:09;93559.72;;;21.18;100.00
11808;BME280;5961;42.640;23.380;2022-08-21T05:32:36;93552.66;;;21.24;100.00
11808;BME280;5961;42.640;23.380;2022-08-21T05:35:04;93481.44;;;20.88;100.00
11808;BME280;5961;42.640;23.380;2022-08-21T05:37:32;93539.47;;;21.30;100.00
11808;BME280;5961;42.640;23.380;2022-08-21T05:40:00;93545.41;;;21.45;100.00
11808;BME280;5961;42.640;23.380;2022-08-21T05:42:27;93534.59;;;21.45;100.00
11808;BME280;5961;42.640;23.380;2022-08-21T05:44:54;93537.09;;;21.55;99.82
11808;BME280;5961;42.640;23.380;2022-08-21T05:47:20;93536.63;;;21.60;99.91
11808;BME280;5961;42.640;23.380;2022-08-21T05:49:47;93505.06;;;21.54;99.30
11808;BME280;5961;42.640;23.380;2022-08-21T05:52:18;93536.25;;;21.81;99.27
11808;BME280;5961;42.640;23.380;2022-08-21T05:54:45;93537.69;;;21.86;97.25
11808;BME280;5961;42.640;23.380;2022-08-21T05:57:13;93529.56;;;21.90;98.95
11808;BME280;5961;42.640;23.380;2022-08-21T05:59:40;93529.56;;;21.90;98.56
11808;BME280;5961;42.640;23.380;2022-08-21T06:02:06;93536.41;;;21.94;98.65
11808;BME280;5961;42.640;23.380;2022-08-21T06:04:35;93538.72;;;21.96;99.46
11808;BME280;5961;42.640;23.380;2022-08-21T06:07:02;93542.19;;;21.96;99.83
11808;BME280;5961;42.640;23.380;2022-08-21T06:09:29;93549.47;;;21.99;100.00
11808;BME280;5961;42.640;23.380;2022-08-21T06:11:56;93526.72;;;21.97;100.00
11808;BME280;5961;42.640;23.380;2022-08-21T06:14:24;93538.84;;;22.08;100.00
11808;BME280;5961;42.640;23.380;2022-08-21T06:16:51;93530.19;;;22.17;100.00
11808;BME280;5961;42.640;23.380;2022-08-21T06:19:17;93533.84;;;22.26;99.29
11808;BME280;5961;42.640;23.380;2022-08-21T06:21:44;93537.44;;;22.39;98.40
11808;BME280;5961;42.640;23.380;2022-08-21T06:24:11;93544.91;;;22.52;97.29
11808;BME280;5961;42.640;23.380;2022-08-21T06:26:38;93535.00;;;22.65;96.62
11808;BME280;5961;42.640;23.380;2022-08-21T06:29:05;93534.00;;;22.75;95.65
11808;BME280;5961;42.640;23.380;2022-08-21T06:31:34;93544.00;;;22.94;94.55
11808;BME280;5961;42.640;23.380;2022-08-21T06:34:00;93543.88;;;23.01;93.17
11808;BME280;5961;42.640;23.380;2022-08-21T06:36:27;93537.78;;;23.13;91.52
11808;BME280;5961;42.640;23.380;2022-08-21T06:38:54;93546.41;;;23.24;91.15
11808;BME280;5961;42.640;23.380;2022-08-21T06:41:20;93547.00;;;23.32;89.89
11808;BME280;5961;42.640;23.380;2022-08-21T06:43:47;93559.22;;;23.40;87.32
11808;BME280;5961;42.640;23.380;2022-08-21T06:46:14;93554.91;;;23.42;88.26
11808;BME280;5961;42.640;23.380;2022-08-21T06:48:42;93560.69;;;23.44;88.13
11808;BME280;5961;42.640;23.380;2022-08-21T06:51:09;93569.06;;;23.50;88.28
11808;BME280;5961;42.640;23.380;2022-08-21T06:53:36;93557.44;;;23.49;87.54
11808;BME280;5961;42.640;23.380;2022-08-21T06:56:03;93559.72;;;23.51;88.48
11808;BME280;5961;42.640;23.380;2022-08-21T06:58:30;93569.84;;;23.51;87.67
11808;BME280;5961;42.640;23.380;2022-08-21T07:00:57;93569.31;;;23.56;87.83
11808;BME280;5961;42.640;23.380;2022-08-21T07:03:26;93564.97;;;23.58;86.21
11808;BME280;5961;42.640;23.380;2022-08-21T07:05:55;93541.84;;;23.54;86.49
11808;BME280;5961;42.640;23.380;2022-08-21T07:08:24;93559.47;;;23.62;85.69
11808;BME280;5961;42.640;23.380;2022-08-21T07:10:53;93557.16;;;23.60;85.32
11808;BME280;5961;42.640;23.380;2022-08-21T07:13:20;93567.94;;;23.64;85.46
11808;BME280;5961;42.640;23.380;2022-08-21T07:15:47;93568.63;;;23.68;85.55
11808;BME280;5961;42.640;23.380;2022-08-21T07:18:13;93558.72;;;23.61;84.94
11808;BME280;5961;42.640;23.380;2022-08-21T07:20:41;93567.84;;;23.67;83.77
11808;BME280;5961;42.640;23.380;2022-08-21T07:23:13;93571.00;;;23.66;82.91
11808;BME280;5961;42.640;23.380;2022-08-21T07:25:41;93566.22;;;23.70;83.64
11808;BME280;5961;42.640;23.380;2022-08-21T07:28:08;93552.34;;;23.68;85.70
11808;BME280;5961;42.640;23.380;2022-08-21T07:30:35;93549.19;;;23.69;85.69
11808;BME280;5961;42.640;23.380;2022-08-21T07:33:02;93549.03;;;23.76;85.85
11808;BME280;5961;42.640;23.380;2022-08-21T07:35:28;93545.03;;;23.81;85.57
11808;BME280;5961;42.640;23.380;2022-08-21T07:37:56;93546.84;;;23.71;85.01
11808;BME280;5961;42.640;23.380;2022-08-21T07:40:25;93550.63;;;23.74;84.38
11808;BME280;5961;42.640;23.380;2022-08-21T07:42:52;93538.94;;;23.77;83.69
11808;BME280;5961;42.640;23.380;2022-08-21T07:45:21;93542.81;;;23.76;83.62
11808;BME280;5961;42.640;23.380;2022-08-21T07:47:50;93537.06;;;23.74;84.96
11808;BME280;5961;42.640;23.380;2022-08-21T07:50:17;93537.84;;;23.74;84.92
11808;BME280;5961;42.640;23.380;2022-08-21T07:52:44;93540.47;;;23.78;84.23
11808;BME280;5961;42.640;23.380;2022-08-21T07:55:14;93543.91;;;23.78;83.08
11808;BME280;5961;42.640;23.380;2022-08-21T07:57:42;93540.78;;;23.80;82.84
11808;BME280;5961;42.640;23.380;2022-08-21T08:00:16;93533.81;;;23.79;82.83
11808;BME280;5961;42.640;23.380;2022-08-21T08:02:45;93547.16;;;23.73;82.37
11808;BME280;5961;42.640;23.380;2022-08-21T08:05:15;93535.38;;;23.80;81.62
11808;BME280;5961;42.640;23.380;2022-08-21T08:07:42;93538.94;;;23.77;83.21
11808;BME280;5961;42.640;23.380;2022-08-21T08:10:10;93541.97;;;23.79;83.55
11808;BME280;5961;42.640;23.380;2022-08-21T08:12:39;93542.31;;;23.81;85.14
11808;BME280;5961;42.640;23.380;2022-08-21T08:15:11;93546.91;;;23.84;82.74
11808;BME280;5961;42.640;23.380;2022-08-21T08:17:38;93540.16;;;23.88;83.43
11808;BME280;5961;42.640;23.380;2022-08-21T08:20:06;93533.31;;;23.84;83.42
11808;BME280;5961;42.640;23.380;2022-08-21T08:22:34;93549.22;;;23.98;84.62
11808;BME280;5961;42.640;23.380;2022-08-21T08:25:01;93535.84;;;23.91;83.20
11808;BME280;5961;42.640;23.380;2022-08-21T08:27:28;93553.25;;;24.06;82.59
11808;BME280;5961;42.640;23.380;2022-08-21T08:29:54;93550.47;;;24.10;81.08
11808;BME280;5961;42.640;23.380;2022-08-21T08:32:22;93538.84;;;24.09;82.16
11808;BME280;5961;42.640;23.380;2022-08-21T08:34:50;93555.63;;;24.20;81.75
11808;BME280;5961;42.640;23.380;2022-08-21T08:37:19;93563.25;;;24.25;79.96
11808;BME280;5961;42.640;23.380;2022-08-21T08:39:46;93562.41;;;24.28;80.46
11808;BME280;5961;42.640;23.380;2022-08-21T08:42:17;93556.09;;;24.31;79.57
11808;BME280;5961;42.640;23.380;2022-08-21T08:44:48;93557.63;;;24.32;79.86
11808;BME280;5961;42.640;23.380;2022-08-21T08:47:19;93559.34;;;24.26;79.41
11808;BME280;5961;42.640;23.380;2022-08-21T08:49:55;93547.81;;;24.22;79.57
11808;BME280;5961;42.640;23.380;2022-08-21T08:52:27;93553.47;;;24.28;79.09
11808;BME280;5961;42.640;23.380;2022-08-21T08:55:01;93553.81;;;24.30;79.30
11808;BME280;5961;42.640;23.380;2022-08-21T08:57:28;93549.91;;;24.31;80.24
11808;BME280;5961;42.640;23.380;2022-08-21T08:59:59;93541.75;;;24.31;80.15
11808;BME280;5961;42.640;23.380;2022-08-21T09:02:26;93542.53;;;24.31;79.72
11808;BME280;5961;42.640;23.380;2022-08-21T09:04:55;93538.94;;;24.34;80.94
11808;BME280;5961;42.640;23.380;2022-08-21T09:07:30;93537.22;;;24.40;80.61
11808;BME280;5961;42.640;23.380;2022-08-21T09:10:11;93537.88;;;24.44;79.65
11808;BME280;5961;42.640;23.380;2022-08-21T09:12:49;93536.16;;;24.50;78.13
11808;BME280;5961;42.640;23.380;2022-08-21T09:15:24;93532.13;;;24.55;78.35
11808;BME280;5961;42.640;23.380;2022-08-21T09:21:09;93532.03;;;24.58;78.83
11808;BME280;5961;42.640;23.380;2022-08-21T09:23:59;93496.38;;;24.44;79.04
11808;BME280;5961;42.640;23.380;2022-08-21T09:26:31;93489.63;;;24.48;78.74
11808;BME280;5961;42.640;23.380;2022-08-21T09:29:02;93509.88;;;24.73;78.31
11808;BME280;5961;42.640;23.380;2022-08-21T09:31:32;93516.31;;;24.91;77.00
11808;BME280;5961;42.640;23.380;2022-08-21T09:34:02;93527.75;;;24.99;77.49
11808;BME280;5961;42.640;23.380;2022-08-21T09:36:37;93519.34;;;25.06;77.70
11808;BME280;5961;42.640;23.380;2022-08-21T09:39:05;93514.13;;;25.11;76.86
11808;BME280;5961;42.640;23.380;2022-08-21T09:41:34;93521.31;;;25.18;76.14
11808;BME280;5961;42.640;23.380;2022-08-21T09:44:02;93527.41;;;25.22;76.42
11808;BME280;5961;42.640;23.380;2022-08-21T09:46:29;93518.69;;;25.27;75.89
11808;BME280;5961;42.640;23.380;2022-08-21T09:48:58;93521.75;;;25.29;75.05
11808;BME280;5961;42.640;23.380;2022-08-21T09:51:26;93516.31;;;25.29;75.15
11808;BME280;5961;42.640;23.380;2022-08-21T09:53:57;93522.47;;;25.30;76.37
11808;BME280;5961;42.640;23.380;2022-08-21T09:56:30;93511.84;;;25.23;75.89
11808;BME280;5961;42.640;23.380;2022-08-21T09:59:24;93517.41;;;25.19;75.88
11808;BME280;5961;42.640;23.380;2022-08-21T10:01:53;93512.50;;;25.14;75.02
11808;BME280;5961;42.640;23.380;2022-08-21T10:04:23;93498.16;;;25.01;75.55
11808;BME280;5961;42.640;23.380;2022-08-21T10:06:50;93514.47;;;25.01;75.50
11808;BME280;5961;42.640;23.380;2022-08-21T10:09:19;93504.47;;;24.98;76.62
11808;BME280;5961;42.640;23.380;2022-08-21T10:11:53;93499.34;;;24.87;76.59
11808;BME280;5961;42.640;23.380;2022-08-21T10:14:41;93504.56;;;24.82;76.27
11808;BME280;5961;42.640;23.380;2022-08-21T10:17:15;93499.66;;;24.77;77.30
11808;BME280;5961;42.640;23.380;2022-08-21T10:19:52;93457.16;;;24.32;77.99
11808;BME280;5961;42.640;23.380;2022-08-21T10:22:29;93492.16;;;24.55;77.87
11808;BME280;5961;42.640;23.380;2022-08-21T10:25:09;93495.41;;;24.50;78.93
11808;BME280;5961;42.640;23.380;2022-08-21T10:27:44;93489.63;;;24.48;79.39
11808;BME280;5961;42.640;23.380;2022-08-21T10:30:17;93495.16;;;24.45;78.48
11808;BME280;5961;42.640;23.380;2022-08-21T10:33:13;93486.38;;;24.41;79.03
11808;BME280;5961;42.640;23.380;2022-08-21T10:35:51;93486.28;;;24.44;79.25
11808;BME280;5961;42.640;23.380;2022-08-21T10:38:53;93487.47;;;24.43;78.50
11808;BME280;5961;42.640;23.380;2022-08-21T10:41:32;93478.44;;;24.46;79.36
11808;BME280;5961;42.640;23.380;2022-08-21T10:44:12;93478.34;;;24.50;81.27
11808;BME280;5961;42.640;23.380;2022-08-21T10:46:49;93479.34;;;24.56;78.88
11808;BME280;5961;42.640;23.380;2022-08-21T10:49:25;93464.66;;;24.53;78.01
11808;BME280;5961;42.640;23.380;2022-08-21T10:52:22;93470.84;;;24.67;78.43
11808;BME280;5961;42.640;23.380;2022-08-21T10:54:57;93466.19;;;24.80;78.87
11808;BME280;5961;42.640;23.380;2022-08-21T10:57:35;93467.06;;;24.89;78.18
11808;BME280;5961;42.640;23.380;2022-08-21T11:00:07;93464.00;;;25.00;75.84
11808;BME280;5961;42.640;23.380;2022-08-21T11:02:40;93456.59;;;25.13;75.73
11808;BME280;5961;42.640;23.380;2022-08-21T11:05:12;93449.81;;;25.30;74.65
11808;BME280;5961;42.640;23.380;2022-08-21T11:07:46;93452.63;;;25.39;73.30
11808;BME280;5961;42.640;23.380;2022-08-21T11:10:18;93447.34;;;25.57;71.72
11808;BME280;5961;42.640;23.380;2022-08-21T11:12:52;93441.09;;;25.70;74.97
11808;BME280;5961;42.640;23.380;2022-08-21T11:15:34;93420.91;;;25.80;73.00
11808;BME280;5961;42.640;23.380;2022-08-21T11:18:13;93421.16;;;25.94;69.91
11808;BME280;5961;42.640;23.380;2022-08-21T11:20:46;93434.22;;;26.21;69.79
11808;BME280;5961;42.640;23.380;2022-08-21T11:23:20;93433.16;;;26.18;70.27
11808;BME280;5961;42.640;23.380;2022-08-21T11:25:53;93439.66;;;26.21;72.85
11808;BME280;5961;42.640;23.380;2022-08-21T11:28:28;93431.78;;;26.23;70.67
11808;BME280;5961;42.640;23.380;2022-08-21T11:31:04;93431.66;;;26.27;70.09
11808;BME280;5961;42.640;23.380;2022-08-21T11:33:57;93433.97;;;26.28;70.32
11808;BME280;5961;42.640;23.380;2022-08-21T11:36:34;93430.00;;;26.29;69.93
11808;BME280;5961;42.640;23.380;2022-08-21T11:39:12;93441.09;;;26.35;71.12
11808;BME280;5961;42.640;23.380;2022-08-21T11:41:46;93432.16;;;26.34;70.83
11808;BME280;5961;42.640;23.380;2022-08-21T11:44:29;93431.22;;;26.28;73.44
11808;BME280;5961;42.640;23.380;2022-08-21T11:47:05;93422.44;;;26.24;69.35
11808;BME280;5961;42.640;23.380;2022-08-21T11:50:06;93425.75;;;26.19;70.29
11808;BME280;5961;42.640;23.380;2022-08-21T11:52:42;93407.31;;;26.01;70.72
11808;BME280;5961;42.640;23.380;2022-08-21T11:55:14;93421.09;;;26.07;70.78
11808;BME280;5961;42.640;23.380;2022-08-21T11:57:47;93425.59;;;26.01;68.70
11808;BME280;5961;42.640;23.380;2022-08-21T12:00:21;93418.31;;;25.98;70.17
11808;BME280;5961;42.640;23.380;2022-08-21T12:02:52;93422.38;;;25.93;67.09
11808;BME280;5961;42.640;23.380;2022-08-21T12:05:27;93416.72;;;25.88;67.37
11808;BME280;5961;42.640;23.380;2022-08-21T12:08:04;93405.97;;;25.84;68.72
11808;BME280;5961;42.640;23.380;2022-08-21T12:10:34;93403.69;;;25.83;68.09
11808;BME280;5961;42.640;23.380;2022-08-21T12:13:10;93402.94;;;25.82;68.57
11808;BME280;5961;42.640;23.380;2022-08-21T12:15:40;93395.47;;;25.74;68.14
11808;BME280;5961;42.640;23.380;2022-08-21T12:18:21;93415.59;;;25.76;69.06
11808;BME280;5961;42.640;23.380;2022-08-21T12:21:02;93411.81;;;25.74;71.25
11808;BME280;5961;42.640;23.380;2022-08-21T12:23:33;93415.22;;;25.65;69.91
11808;BME280;5961;42.640;23.380;2022-08-21T12:26:24;93417.63;;;25.63;70.90
11808;BME280;5961;42.640;23.380;2022-08-21T12:29:04;93416.22;;;25.58;70.72
11808;BME280;5961;42.640;23.380;2022-08-21T12:31:35;93408.50;;;25.57;73.72
11808;BME280;5961;42.640;23.380;2022-08-21T12:34:02;93418.00;;;25.52;68.50
11808;BME280;5961;42.640;23.380;2022-08-21T12:36:42;93411.03;;;25.51;69.29
11808;BME280;5961;42.640;23.380;2022-08-21T12:39:15;93399.16;;;25.45;72.76
11808;BME280;5961;42.640;23.380;2022-08-21T12:41:49;93420.41;;;25.50;74.31
11808;BME280;5961;42.640;23.380;2022-08-21T12:44:22;93408.75;;;25.50;71.24
11808;BME280;5961;42.640;23.380;2022-08-21T12:46:57;93405.59;;;25.51;74.18
11808;BME280;5961;42.640;23.380;2022-08-21T12:49:27;93404.41;;;25.52;72.68
11808;BME280;5961;42.640;23.380;2022-08-21T12:52:02;93407.88;;;25.53;73.59
11808;BME280;5961;42.640;23.380;2022-08-21T12:54:30;93404.41;;;25.52;74.29
11808;BME280;5961;42.640;23.380;2022-08-21T12:56:59;93400.16;;;25.51;73.95
11808;BME280;5961;42.640;23.380;2022-08-21T12:59:27;93397.44;;;25.39;74.50
11808;BME280;5961;42.640;23.380;2022-08-21T13:01:55;93388.78;;;25.31;74.45
11808;BME280;5961;42.640;23.380;2022-08-21T13:04:33;93384.03;;;25.23;75.36
11808;BME280;5961;42.640;23.380;2022-08-21T13:07:05;93378.94;;;25.12;75.47
11808;BME280;5961;42.640;23.380;2022-08-21T13:09:32;93389.94;;;25.08;76.55
11808;BME280;5961;42.640;23.380;2022-08-21T13:11:59;93387.00;;;25.03;77.22
11808;BME280;5961;42.640;23.380;2022-08-21T13:14:30;93390.22;;;24.89;77.23